Time;durP1;ratioP1;P1;durP2;ratioP2;P2;SDS_P1;SDS_P2;PMS_P1;PMS_P2;Temp;Humidity;BMP_temperature;BMP_pressure;BME280_temperature;BME280_humidity;BME280_pressure;Samples;Min_cycle;Max_cycle;Signal;HPM_P1;HPM_P2
2021/10/18 00:02:26;;;;;;;;;;;17.90;44.40;;;;;;8237558;28;19914;-50
2021/10/18 00:06:26;;;;;;;;;;;17.80;44.40;;;;;;8237409;28;19933;-53
2021/10/18 00:10:27;;;;;;;;;;;17.80;44.40;;;;;;8236289;28;20299;-50
2021/10/18 00:14:27;;;;;;;;;;;17.80;44.40;;;;;;8236793;28;19917;-50
2021/10/18 00:18:28;;;;;;;;;;;17.80;44.40;;;;;;8236424;28;19914;-50
2021/10/18 00:22:28;;;;;;;;;;;17.80;44.40;;;;;;8237407;28;20399;-50
2021/10/18 00:26:29;;;;;;;;;;;17.80;44.50;;;;;;8236534;28;19984;-50
2021/10/18 00:30:29;;;;;;;;;;;17.80;44.40;;;;;;8236272;28;20094;-52
2021/10/18 00:34:30;;;;;;;;;;;17.80;44.40;;;;;;8236575;28;19961;-50
2021/10/18 00:38:30;;;;;;;;;;;17.80;44.50;;;;;;8236972;28;19918;-50
2021/10/18 00:42:31;;;;;;;;;;;17.80;44.50;;;;;;8235588;28;19918;-49
2021/10/18 00:46:32;;;;;;;;;;;17.80;44.40;;;;;;8235932;28;19922;-50
2021/10/18 00:50:32;;;;;;;;;;;17.80;44.50;;;;;;8236020;28;19918;-50
2021/10/18 00:54:33;;;;;;;;;;;17.80;44.50;;;;;;8235455;28;20005;-50
2021/10/18 00:58:33;;;;;;;;;;;17.80;44.50;;;;;;8236253;28;19916;-50
2021/10/18 01:02:34;;;;;;;;;;;17.70;44.40;;;;;;8235729;28;20358;-52
2021/10/18 01:06:34;;;;;;;;;;;17.70;44.40;;;;;;8234965;28;19944;-50
2021/10/18 01:10:35;;;;;;;;;;;17.70;44.50;;;;;;8234482;28;19921;-49
2021/10/18 01:14:36;;;;;;;;;;;17.70;44.50;;;;;;8235778;28;20010;-50
2021/10/18 01:18:37;;;;;;;;;;;17.70;44.40;;;;;;8234656;28;19914;-50
2021/10/18 01:22:38;;;;;;;;;;;17.70;44.50;;;;;;8234333;28;19914;-50
2021/10/18 01:26:39;;;;;;;;;;;17.70;44.40;;;;;;8234610;28;19922;-49
2021/10/18 01:30:39;;;;;;;;;;;17.70;44.40;;;;;;8234537;28;19931;-50
2021/10/18 01:34:40;;;;;;;;;;;17.80;44.50;;;;;;8235159;28;19910;-50
2021/10/18 01:38:40;;;;;;;;;;;17.70;44.40;;;;;;8233841;28;19962;-50
2021/10/18 01:42:41;;;;;;;;;;;17.70;44.40;;;;;;8233832;28;19925;-50
2021/10/18 01:46:42;;;;;;;;;;;17.70;44.40;;;;;;8234258;28;20029;-53
2021/10/18 01:50:42;;;;;;;;;;;17.70;44.40;;;;;;8234933;28;19921;-50
2021/10/18 01:54:43;;;;;;;;;;;17.70;44.40;;;;;;8234094;28;19965;-50
2021/10/18 01:58:43;;;;;;;;;;;17.70;44.40;;;;;;8234212;28;19921;-50
2021/10/18 02:02:44;;;;;;;;;;;17.70;44.40;;;;;;8233414;28;19949;-47
2021/10/18 02:06:44;;;;;;;;;;;17.70;44.40;;;;;;8234308;28;19925;-53
2021/10/18 02:10:45;;;;;;;;;;;17.70;44.40;;;;;;8233669;28;19916;-50
2021/10/18 02:14:45;;;;;;;;;;;17.70;44.40;;;;;;8233174;28;19917;-50
2021/10/18 02:18:47;;;;;;;;;;;17.70;44.40;;;;;;8233331;28;20342;-51
2021/10/18 02:22:47;;;;;;;;;;;17.70;44.40;;;;;;8233522;28;19965;-50
2021/10/18 02:26:47;;;;;;;;;;;17.70;44.40;;;;;;8233658;28;19922;-50
2021/10/18 02:30:49;;;;;;;;;;;17.70;44.40;;;;;;8233632;28;19921;-49
2021/10/18 02:34:49;;;;;;;;;;;17.70;44.40;;;;;;8232277;28;19945;-50
2021/10/18 02:38:49;;;;;;;;;;;17.60;44.40;;;;;;8232676;28;19937;-50
2021/10/18 02:42:50;;;;;;;;;;;17.70;44.40;;;;;;8234009;28;20394;-49
2021/10/18 02:46:50;;;;;;;;;;;17.70;44.40;;;;;;8232814;28;19957;-50
2021/10/18 02:50:52;;;;;;;;;;;17.70;44.40;;;;;;8232616;28;19917;-51
2021/10/18 02:54:54;;;;;;;;;;;17.60;44.40;;;;;;8233205;28;19925;-53
2021/10/18 02:58:54;;;;;;;;;;;17.70;44.40;;;;;;8233329;28;19910;-49
2021/10/18 03:02:55;;;;;;;;;;;17.60;44.40;;;;;;8232406;28;20019;-50
2021/10/18 03:06:55;;;;;;;;;;;17.60;44.40;;;;;;8232636;28;20288;-50
2021/10/18 03:10:55;;;;;;;;;;;17.60;44.40;;;;;;8232675;28;19921;-50
2021/10/18 03:14:56;;;;;;;;;;;17.60;44.40;;;;;;8232038;28;19911;-51
2021/10/18 03:18:56;;;;;;;;;;;17.60;44.40;;;;;;8233262;28;20332;-49
2021/10/18 03:22:57;;;;;;;;;;;17.60;44.40;;;;;;8232408;28;19914;-50
2021/10/18 03:26:57;;;;;;;;;;;17.60;44.40;;;;;;8231799;28;20331;-49
2021/10/18 03:30:58;;;;;;;;;;;17.60;44.40;;;;;;8232421;28;19921;-50
2021/10/18 03:34:58;;;;;;;;;;;17.60;44.50;;;;;;8232896;28;20017;-49
2021/10/18 03:38:59;;;;;;;;;;;17.60;44.50;;;;;;8231650;28;19914;-50
2021/10/18 03:42:59;;;;;;;;;;;17.60;44.40;;;;;;8232204;28;20269;-50
2021/10/18 03:47:00;;;;;;;;;;;17.60;44.50;;;;;;8235942;28;19922;-50
2021/10/18 03:51:00;;;;;;;;;;;17.60;44.50;;;;;;8238154;28;19914;-50
2021/10/18 03:55:01;;;;;;;;;;;17.60;44.50;;;;;;8238115;28;19922;-49
2021/10/18 03:59:02;;;;;;;;;;;17.60;44.40;;;;;;8237469;28;20363;-50
2021/10/18 04:03:02;;;;;;;;;;;17.60;44.40;;;;;;8236967;28;19989;-51
2021/10/18 04:07:03;;;;;;;;;;;17.60;44.40;;;;;;8237138;28;19922;-49
2021/10/18 04:11:03;;;;;;;;;;;17.60;44.40;;;;;;8237363;28;19924;-50
2021/10/18 04:15:04;;;;;;;;;;;17.60;44.40;;;;;;8236952;28;19997;-50
2021/10/18 04:19:05;;;;;;;;;;;17.60;44.40;;;;;;8237030;28;19918;-52
2021/10/18 04:23:05;;;;;;;;;;;17.60;44.40;;;;;;8237091;28;19910;-49
2021/10/18 04:27:06;;;;;;;;;;;17.60;44.40;;;;;;8236806;28;20032;-50
2021/10/18 04:31:06;;;;;;;;;;;17.60;44.40;;;;;;8236654;28;19914;-51
2021/10/18 04:35:07;;;;;;;;;;;17.60;44.40;;;;;;8236489;28;19968;-50
2021/10/18 04:39:07;;;;;;;;;;;17.60;44.50;;;;;;8235971;28;19968;-50
2021/10/18 04:43:08;;;;;;;;;;;17.60;44.50;;;;;;8236675;28;19933;-50
2021/10/18 04:47:09;;;;;;;;;;;17.60;44.50;;;;;;8236518;28;19928;-50
2021/10/18 04:51:09;;;;;;;;;;;17.60;44.50;;;;;;8235571;28;19922;-51
2021/10/18 04:55:10;;;;;;;;;;;17.60;44.50;;;;;;8236224;28;20001;-49
2021/10/18 04:59:10;;;;;;;;;;;17.60;44.60;;;;;;8235087;28;19914;-49
2021/10/18 05:03:11;;;;;;;;;;;17.60;44.60;;;;;;8235873;28;19914;-50
2021/10/18 05:07:11;;;;;;;;;;;17.60;44.60;;;;;;8234703;28;19933;-49
2021/10/18 05:11:12;;;;;;;;;;;17.60;45.10;;;;;;8235396;28;19914;-50
2021/10/18 05:15:12;;;;;;;;;;;17.60;44.60;;;;;;8234831;28;19989;-50
2021/10/18 05:19:13;;;;;;;;;;;17.60;44.60;;;;;;8235818;28;20029;-50
2021/10/18 05:23:13;;;;;;;;;;;17.60;44.60;;;;;;8235014;28;19914;-50
2021/10/18 05:27:13;;;;;;;;;;;17.60;44.60;;;;;;8234458;28;19929;-50
2021/10/18 05:31:14;;;;;;;;;;;17.60;44.60;;;;;;8234725;28;19918;-49
2021/10/18 05:35:14;;;;;;;;;;;17.60;44.60;;;;;;8234442;28;19910;-49
2021/10/18 05:39:15;;;;;;;;;;;17.60;44.60;;;;;;8234850;28;19910;-50
2021/10/18 05:43:15;;;;;;;;;;;17.60;44.60;;;;;;8234390;28;19953;-49
2021/10/18 05:47:16;;;;;;;;;;;17.60;44.60;;;;;;8234176;28;19922;-49
2021/10/18 05:51:18;;;;;;;;;;;17.60;44.60;;;;;;8233624;28;19914;-50
2021/10/18 05:55:18;;;;;;;;;;;17.60;44.60;;;;;;8235236;28;20316;-50
2021/10/18 05:59:19;;;;;;;;;;;17.60;44.60;;;;;;8233677;28;19914;-53
2021/10/18 06:03:19;;;;;;;;;;;17.50;44.60;;;;;;8233136;28;19921;-49
2021/10/18 06:07:20;;;;;;;;;;;17.60;44.60;;;;;;8233486;28;20295;-49
2021/10/18 06:11:20;;;;;;;;;;;17.60;44.70;;;;;;8234046;28;19942;-50
2021/10/18 06:15:21;;;;;;;;;;;17.60;44.70;;;;;;8233125;28;19918;-50
2021/10/18 06:19:21;;;;;;;;;;;17.60;44.70;;;;;;8233103;28;19918;-50
2021/10/18 06:23:22;;;;;;;;;;;17.60;44.60;;;;;;8233296;28;20347;-50
2021/10/18 06:27:23;;;;;;;;;;;17.60;44.60;;;;;;8232528;28;19926;-50
2021/10/18 06:31:24;;;;;;;;;;;17.60;44.70;;;;;;8233908;28;20290;-50
2021/10/18 06:35:24;;;;;;;;;;;17.60;44.70;;;;;;8233055;28;19914;-50
2021/10/18 06:39:25;;;;;;;;;;;17.60;44.60;;;;;;8232502;28;19914;-49
2021/10/18 06:43:25;;;;;;;;;;;17.50;44.60;;;;;;8233060;28;19910;-50
2021/10/18 06:47:28;;;;;;;;;;;17.60;44.60;;;;;;8233698;28;19926;-50
2021/10/18 06:51:33;;;;;;;;;;;17.60;44.60;;;;;;8232331;28;19918;-50
2021/10/18 06:55:34;;;;;;;;;;;17.60;44.70;;;;;;8233185;28;19918;-49
2021/10/18 06:59:34;;;;;;;;;;;17.60;44.70;;;;;;8232630;28;19910;-50
2021/10/18 07:03:35;;;;;;;;;;;17.50;44.60;;;;;;8231586;28;19914;-51
2021/10/18 07:07:37;;;;;;;;;;;17.60;44.70;;;;;;8233186;28;19926;-49
2021/10/18 07:11:37;;;;;;;;;;;17.60;44.60;;;;;;8232551;28;19921;-50
2021/10/18 07:15:38;;;;;;;;;;;17.60;44.60;;;;;;8232466;28;20009;-51
2021/10/18 07:19:39;;;;;;;;;;;17.60;44.70;;;;;;8232664;28;20063;-51
2021/10/18 07:23:39;;;;;;;;;;;17.60;45.20;;;;;;8239278;28;19914;-50
2021/10/18 07:27:42;;;;;;;;;;;17.60;44.70;;;;;;8237821;28;19968;-50
2021/10/18 07:31:43;;;;;;;;;;;17.60;44.70;;;;;;8238098;28;19925;-50
2021/10/18 07:35:43;;;;;;;;;;;17.60;44.60;;;;;;8237982;28;19973;-49
2021/10/18 07:39:44;;;;;;;;;;;17.60;44.60;;;;;;8239123;28;20002;-52
2021/10/18 07:43:45;;;;;;;;;;;17.60;44.70;;;;;;8205970;28;20379;-50
2021/10/18 07:47:45;;;;;;;;;;;17.60;44.70;;;;;;8226634;28;19993;-50
2021/10/18 07:51:46;;;;;;;;;;;17.60;44.70;;;;;;8237825;28;20287;-50
2021/10/18 07:55:46;;;;;;;;;;;17.60;44.80;;;;;;8227263;28;20005;-51
2021/10/18 07:59:47;;;;;;;;;;;17.60;44.80;;;;;;8232787;28;19921;-51
2021/10/18 08:03:47;;;;;;;;;;;17.60;44.70;;;;;;8223354;28;20408;-50
2021/10/18 08:07:50;;;;;;;;;;;17.60;44.80;;;;;;8230749;28;19972;-50
2021/10/18 08:11:50;;;;;;;;;;;17.60;44.80;;;;;;8238465;28;19921;-52
2021/10/18 08:15:51;;;;;;;;;;;17.60;44.70;;;;;;8253824;28;19914;-49
2021/10/18 08:19:51;;;;;;;;;;;17.60;44.80;;;;;;8240289;28;19918;-50
2021/10/18 08:23:52;;;;;;;;;;;17.60;44.80;;;;;;8235824;28;19925;-52
2021/10/18 08:27:52;;;;;;;;;;;17.60;44.70;;;;;;8241310;28;20024;-51
2021/10/18 08:31:53;;;;;;;;;;;17.70;44.80;;;;;;8235922;28;20018;-50
2021/10/18 08:35:53;;;;;;;;;;;17.70;44.70;;;;;;8236091;28;20435;-50
2021/10/18 08:47:57;;;;;;;;;;;17.70;44.70;;;;;;8235598;28;20332;-50
2021/10/18 08:51:58;;;;;;;;;;;17.70;44.70;;;;;;8236275;28;19910;-51
2021/10/18 08:55:58;;;;;;;;;;;17.70;44.70;;;;;;8235640;28;20008;-53
2021/10/18 08:59:59;;;;;;;;;;;17.70;44.70;;;;;;8234864;28;20021;-52
2021/10/18 09:04:09;;;;;;;;;;;17.70;44.70;;;;;;8234859;28;19914;-53
2021/10/18 09:08:26;;;;;;;;;;;17.70;44.80;;;;;;8228047;28;19961;-50
2021/10/18 09:12:39;;;;;;;;;;;17.70;44.70;;;;;;8225705;28;19992;-53
2021/10/18 09:16:42;;;;;;;;;;;17.70;44.70;;;;;;8232284;28;19914;-50
2021/10/18 09:20:43;;;;;;;;;;;17.70;44.70;;;;;;8234351;28;20012;-51
2021/10/18 09:24:43;;;;;;;;;;;17.70;44.70;;;;;;8234014;28;19921;-51
2021/10/18 09:28:44;;;;;;;;;;;17.80;44.80;;;;;;8234975;28;19925;-51
2021/10/18 09:32:52;;;;;;;;;;;17.70;44.70;;;;;;8233498;28;19914;-52
2021/10/18 09:37:03;;;;;;;;;;;17.70;44.70;;;;;;8234216;28;19914;-51
2021/10/18 09:41:04;;;;;;;;;;;17.80;44.80;;;;;;8234383;28;20304;-52
2021/10/18 10:52:01;;;;;;;;;;;17.90;44.70;;;;;;8217895;28;19922;-51
2021/10/18 10:55:52;;;;;;;;;;;17.90;44.70;;;;;;8230359;28;19925;-51
2021/10/18 10:59:54;;;;;;;;;;;17.90;44.70;;;;;;8238452;28;19914;-53
2021/10/18 11:03:54;;;;;;;;;;;18.00;44.80;;;;;;8239050;28;19921;-50
2021/10/18 11:07:55;;;;;;;;;;;18.00;44.80;;;;;;8239698;28;20375;-50
2021/10/18 11:11:55;;;;;;;;;;;18.00;44.80;;;;;;8238607;28;19922;-50
2021/10/18 11:15:59;;;;;;;;;;;18.00;44.70;;;;;;8238735;28;20363;-52
2021/10/18 11:20:06;;;;;;;;;;;18.00;44.70;;;;;;8238509;28;19921;-50
2021/10/18 11:24:10;;;;;;;;;;;18.00;44.70;;;;;;8237798;28;20264;-52
2021/10/18 11:28:11;;;;;;;;;;;18.10;44.70;;;;;;8239288;28;19918;-51
2021/10/18 11:32:11;;;;;;;;;;;18.10;44.70;;;;;;8238308;28;19914;-50
2021/10/18 11:36:16;;;;;;;;;;;18.10;44.70;;;;;;8237873;28;20048;-50
2021/10/18 11:40:17;;;;;;;;;;;18.10;44.70;;;;;;8238620;28;19914;-52
2021/10/18 11:44:17;;;;;;;;;;;18.10;44.70;;;;;;8238822;28;20260;-51
2021/10/18 11:48:18;;;;;;;;;;;18.20;44.70;;;;;;8237662;28;20016;-52
2021/10/18 11:52:18;;;;;;;;;;;18.20;44.70;;;;;;8238073;28;19922;-51
2021/10/18 11:56:19;;;;;;;;;;;18.10;44.60;;;;;;8237742;28;19914;-50
2021/10/18 12:00:19;;;;;;;;;;;18.20;44.70;;;;;;8237137;28;19914;-53
2021/10/18 12:04:20;;;;;;;;;;;18.20;44.70;;;;;;8238309;28;19910;-51
2021/10/18 12:08:22;;;;;;;;;;;18.20;44.70;;;;;;8237081;28;19960;-53
2021/10/18 12:12:22;;;;;;;;;;;18.20;44.70;;;;;;8236874;28;20367;-50
2021/10/18 12:16:24;;;;;;;;;;;18.20;44.60;;;;;;8237201;28;20012;-50
2021/10/18 12:20:24;;;;;;;;;;;18.30;44.70;;;;;;8237693;28;19910;-51
2021/10/18 12:24:24;;;;;;;;;;;18.30;44.60;;;;;;8236360;28;19953;-53
2021/10/18 12:28:45;;;;;;;;;;;18.30;44.60;;;;;;8236742;28;19922;-53
2021/10/18 12:33:05;;;;;;;;;;;18.30;44.60;;;;;;8236125;28;19914;-52
2021/10/18 12:37:10;;;;;;;;;;;18.30;44.60;;;;;;8236403;28;19921;-51
2021/10/18 12:41:15;;;;;;;;;;;18.30;44.60;;;;;;8237120;28;20291;-49
2021/10/18 12:45:17;;;;;;;;;;;18.30;44.60;;;;;;8235887;28;20434;-50
2021/10/18 12:49:26;;;;;;;;;;;18.30;44.60;;;;;;8236290;28;20386;-50
2021/10/18 12:53:30;;;;;;;;;;;18.40;44.70;;;;;;8236328;28;20311;-50
2021/10/18 12:57:31;;;;;;;;;;;18.40;44.60;;;;;;8235282;28;19925;-50
2021/10/18 13:01:31;;;;;;;;;;;18.40;44.70;;;;;;8236557;28;20273;-51
2021/10/18 13:05:36;;;;;;;;;;;18.40;44.80;;;;;;8235664;28;19973;-52
2021/10/18 13:09:36;;;;;;;;;;;18.40;44.70;;;;;;8234339;28;19922;-52
2021/10/18 13:13:37;;;;;;;;;;;18.40;44.60;;;;;;8234999;28;19921;-50
2021/10/18 13:17:37;;;;;;;;;;;18.40;44.70;;;;;;8235277;28;19910;-50
2021/10/18 13:21:38;;;;;;;;;;;18.40;44.70;;;;;;8234374;28;19921;-51
2021/10/18 13:25:41;;;;;;;;;;;18.40;44.60;;;;;;8235035;28;19914;-53
2021/10/18 13:29:41;;;;;;;;;;;18.40;44.60;;;;;;8234527;28;19922;-50
2021/10/18 13:33:42;;;;;;;;;;;18.50;44.70;;;;;;8234255;28;19952;-49
2021/10/18 13:37:43;;;;;;;;;;;18.40;44.70;;;;;;8235025;28;20268;-52
2021/10/18 13:41:44;;;;;;;;;;;18.40;44.70;;;;;;8233889;28;19984;-49
2021/10/18 13:45:44;;;;;;;;;;;18.50;44.70;;;;;;8234173;28;19941;-53
2021/10/18 13:49:44;;;;;;;;;;;18.50;44.70;;;;;;8234252;28;20390;-53
2021/10/18 13:53:45;;;;;;;;;;;18.50;44.60;;;;;;8234732;28;19926;-53
2021/10/18 13:57:45;;;;;;;;;;;18.50;44.60;;;;;;8233782;28;19921;-49
2021/10/18 14:01:46;;;;;;;;;;;18.50;44.60;;;;;;8233906;28;20303;-51
2021/10/18 14:05:47;;;;;;;;;;;18.50;44.60;;;;;;8233565;28;19914;-51
2021/10/18 14:09:47;;;;;;;;;;;18.50;44.60;;;;;;8234239;28;19976;-50
2021/10/18 14:13:48;;;;;;;;;;;18.50;44.60;;;;;;8233639;28;20372;-50
2021/10/18 14:17:48;;;;;;;;;;;18.50;44.70;;;;;;8232704;28;19962;-49
2021/10/18 14:21:49;;;;;;;;;;;18.50;44.70;;;;;;8233235;28;20328;-50
2021/10/18 14:25:50;;;;;;;;;;;18.50;44.70;;;;;;8233337;28;19910;-52
2021/10/18 14:29:50;;;;;;;;;;;18.50;44.70;;;;;;8233507;28;19974;-49
2021/10/18 14:33:51;;;;;;;;;;;18.60;44.80;;;;;;8233047;28;19914;-50
2021/10/18 14:37:51;;;;;;;;;;;18.50;44.80;;;;;;8233069;28;19940;-50
2021/10/18 14:41:52;;;;;;;;;;;18.50;44.70;;;;;;8232592;28;20355;-50
2021/10/18 14:45:52;;;;;;;;;;;18.60;44.80;;;;;;8233543;28;20303;-50
2021/10/18 14:49:52;;;;;;;;;;;18.60;44.80;;;;;;8232531;28;19944;-50
2021/10/18 14:53:54;;;;;;;;;;;18.60;44.70;;;;;;8232124;28;19922;-50
2021/10/18 14:57:55;;;;;;;;;;;18.60;44.70;;;;;;8232521;28;20439;-50
2021/10/18 15:01:55;;;;;;;;;;;18.60;44.70;;;;;;8233026;28;19910;-51
2021/10/18 15:05:56;;;;;;;;;;;18.60;44.70;;;;;;8232096;28;19914;-52
2021/10/18 15:09:56;;;;;;;;;;;18.60;44.80;;;;;;8232496;28;19925;-50
2021/10/18 15:13:58;;;;;;;;;;;18.60;44.80;;;;;;8232193;28;20045;-50
2021/10/18 15:17:58;;;;;;;;;;;18.60;44.80;;;;;;8231686;28;19914;-53
2021/10/18 15:21:59;;;;;;;;;;;18.60;44.80;;;;;;8233554;28;19956;-50
2021/10/18 15:25:59;;;;;;;;;;;18.70;44.90;;;;;;8232434;28;19960;-52
2021/10/18 15:30:00;;;;;;;;;;;18.60;44.80;;;;;;8231635;28;19953;-52
2021/10/18 15:34:01;;;;;;;;;;;18.60;44.90;;;;;;8232094;28;19968;-50
2021/10/18 15:38:03;;;;;;;;;;;18.60;44.90;;;;;;8232964;28;19914;-50
2021/10/18 15:42:04;;;;;;;;;;;18.60;44.90;;;;;;8233883;28;19930;-52
2021/10/18 15:46:04;;;;;;;;;;;18.60;44.90;;;;;;8238212;28;19914;-52
2021/10/18 15:50:05;;;;;;;;;;;18.60;44.90;;;;;;8237984;28;19973;-50
2021/10/18 15:54:06;;;;;;;;;;;18.70;45.00;;;;;;8237507;28;19925;-52
2021/10/18 15:58:06;;;;;;;;;;;18.60;45.00;;;;;;8238620;28;20356;-52
2021/10/18 16:02:08;;;;;;;;;;;18.60;45.00;;;;;;8237446;28;19922;-51
2021/10/18 16:06:09;;;;;;;;;;;18.60;45.00;;;;;;8237182;28;20299;-52
2021/10/18 16:10:09;;;;;;;;;;;18.60;45.10;;;;;;8236654;28;19925;-51
2021/10/18 16:14:10;;;;;;;;;;;18.60;45.10;;;;;;8238123;28;19920;-52
2021/10/18 16:18:10;;;;;;;;;;;18.60;45.10;;;;;;8236456;28;19914;-51
2021/10/18 16:22:11;;;;;;;;;;;18.60;45.10;;;;;;8237039;28;20364;-52
2021/10/18 16:26:11;;;;;;;;;;;18.70;45.20;;;;;;8236873;28;19920;-50
2021/10/18 16:30:12;;;;;;;;;;;18.70;45.10;;;;;;8237131;28;19976;-50
2021/10/18 16:34:14;;;;;;;;;;;18.60;45.20;;;;;;8236454;28;19957;-49
2021/10/18 16:38:14;;;;;;;;;;;18.60;45.10;;;;;;8236295;28;20303;-50
2021/10/18 16:42:15;;;;;;;;;;;18.60;45.20;;;;;;8235410;28;20001;-50
2021/10/18 16:46:17;;;;;;;;;;;18.60;45.20;;;;;;8234672;28;19922;-51
2021/10/18 16:50:20;;;;;;;;;;;18.60;45.20;;;;;;8236710;28;20000;-53
2021/10/18 16:54:21;;;;;;;;;;;18.60;45.20;;;;;;8234783;28;20320;-50
2021/10/18 16:58:21;;;;;;;;;;;18.60;45.30;;;;;;8235961;28;19914;-52
2021/10/18 17:02:22;;;;;;;;;;;18.60;45.30;;;;;;8234095;28;19914;-50
2021/10/18 17:06:22;;;;;;;;;;;18.60;45.20;;;;;;8235793;28;19960;-52
2021/10/18 17:10:23;;;;;;;;;;;18.60;45.20;;;;;;8235803;28;19922;-52
2021/10/18 17:14:23;;;;;;;;;;;18.60;45.30;;;;;;8234067;28;19917;-52
2021/10/18 17:18:24;;;;;;;;;;;18.60;45.20;;;;;;8234703;28;20289;-52
2021/10/18 17:22:24;;;;;;;;;;;18.60;45.30;;;;;;8235754;28;19910;-52
2021/10/18 17:26:25;;;;;;;;;;;18.60;45.30;;;;;;8234781;28;20275;-51
2021/10/18 17:30:25;;;;;;;;;;;18.60;45.30;;;;;;8234352;28;20000;-51
2021/10/18 17:34:31;;;;;;;;;;;18.60;45.30;;;;;;8234685;28;19910;-49
2021/10/18 17:38:31;;;;;;;;;;;18.60;45.30;;;;;;8237708;28;19918;-55
2021/10/18 17:42:32;;;;;;;;;;;18.60;45.30;;;;;;8234866;28;20390;-54
2021/10/18 17:46:33;;;;;;;;;;;18.60;45.30;;;;;;8234092;28;19914;-51
2021/10/18 17:50:34;;;;;;;;;;;18.60;45.30;;;;;;8234175;28;19910;-52
2021/10/18 17:54:34;;;;;;;;;;;18.60;45.30;;;;;;8233437;28;19918;-53
2021/10/18 17:58:36;;;;;;;;;;;18.60;45.30;;;;;;8234344;28;19909;-51
2021/10/18 18:02:36;;;;;;;;;;;18.60;45.30;;;;;;8233597;28;19914;-54
2021/10/18 18:06:37;;;;;;;;;;;18.60;45.40;;;;;;8232990;28;20348;-51
2021/10/18 18:10:37;;;;;;;;;;;18.60;45.30;;;;;;8233245;28;20279;-51
2021/10/18 18:14:38;;;;;;;;;;;18.60;45.30;;;;;;8233643;28;19914;-50
2021/10/18 18:18:38;;;;;;;;;;;18.60;45.30;;;;;;8233721;28;19914;-49
2021/10/18 18:22:39;;;;;;;;;;;18.60;45.40;;;;;;8233502;28;19954;-51
2021/10/18 18:26:40;;;;;;;;;;;18.60;45.40;;;;;;8233274;28;20240;-50
2021/10/18 18:30:41;;;;;;;;;;;18.60;45.40;;;;;;8232710;28;19925;-51
2021/10/18 18:34:42;;;;;;;;;;;18.60;45.40;;;;;;8233739;28;20510;-50
2021/10/18 18:38:43;;;;;;;;;;;18.60;45.40;;;;;;8233103;28;19922;-51
2021/10/18 18:42:44;;;;;;;;;;;18.60;45.40;;;;;;8232635;28;19960;-52
2021/10/18 18:46:44;;;;;;;;;;;18.60;45.40;;;;;;8232796;28;19914;-47
2021/10/18 18:50:46;;;;;;;;;;;18.60;45.40;;;;;;8233303;28;19914;-51
2021/10/18 18:54:47;;;;;;;;;;;18.60;45.40;;;;;;8233269;28;19918;-51
2021/10/18 18:58:47;;;;;;;;;;;18.60;45.40;;;;;;8232982;28;20418;-49
2021/10/18 19:02:48;;;;;;;;;;;18.60;45.40;;;;;;8231588;28;19964;-49
2021/10/18 19:06:53;;;;;;;;;;;18.60;45.40;;;;;;8232616;28;19925;-51
2021/10/18 19:10:54;;;;;;;;;;;18.60;45.40;;;;;;8233626;28;20367;-51
2021/10/18 19:14:55;;;;;;;;;;;18.60;45.30;;;;;;8230953;28;19918;-49
2021/10/18 19:18:55;;;;;;;;;;;18.60;45.40;;;;;;8237654;28;20335;-50
2021/10/18 19:22:56;;;;;;;;;;;18.60;45.30;;;;;;8238674;28;19910;-50
2021/10/18 19:26:56;;;;;;;;;;;18.60;45.30;;;;;;8236887;28;19921;-50
2021/10/18 19:30:57;;;;;;;;;;;18.60;45.30;;;;;;8238477;28;19996;-50
2021/10/18 19:34:57;;;;;;;;;;;18.60;45.30;;;;;;8238418;28;19942;-52
2021/10/18 19:38:58;;;;;;;;;;;18.60;45.30;;;;;;8237752;28;20283;-52
2021/10/18 19:42:58;;;;;;;;;;;18.60;45.30;;;;;;8238520;28;20267;-53
2021/10/18 19:47:00;;;;;;;;;;;18.60;45.40;;;;;;8238768;28;19922;-53
2021/10/18 19:51:00;;;;;;;;;;;18.60;45.30;;;;;;8236289;28;19933;-53
2021/10/18 19:55:01;;;;;;;;;;;18.60;45.30;;;;;;8236744;28;19918;-50
2021/10/18 19:59:02;;;;;;;;;;;18.60;45.30;;;;;;8237523;28;20331;-53
2021/10/18 20:03:02;;;;;;;;;;;18.60;45.30;;;;;;8237747;28;19922;-51
2021/10/18 20:07:03;;;;;;;;;;;18.60;45.30;;;;;;8237277;28;19922;-53
2021/10/18 20:11:05;;;;;;;;;;;18.60;45.30;;;;;;8237123;28;19964;-50
2021/10/18 20:15:08;;;;;;;;;;;18.60;45.30;;;;;;8236608;28;19914;-53
2021/10/18 20:19:08;;;;;;;;;;;18.60;45.30;;;;;;8237733;28;19918;-51
2021/10/18 20:23:09;;;;;;;;;;;18.50;45.30;;;;;;8237069;28;20414;-49
2021/10/18 20:27:09;;;;;;;;;;;18.50;45.30;;;;;;8236558;28;19929;-49
2021/10/18 20:31:10;;;;;;;;;;;18.50;45.80;;;;;;8236794;28;19950;-49
2021/10/18 20:35:10;;;;;;;;;;;18.60;45.30;;;;;;8236496;28;19918;-49
2021/10/18 20:39:14;;;;;;;;;;;18.50;45.20;;;;;;8236747;28;19918;-50
2021/10/18 20:43:14;;;;;;;;;;;18.60;45.30;;;;;;8236341;28;19921;-50
2021/10/18 20:47:15;;;;;;;;;;;18.60;45.20;;;;;;8236312;28;19918;-50
2021/10/18 20:51:15;;;;;;;;;;;18.60;45.20;;;;;;8235638;28;19914;-50
2021/10/18 20:55:15;;;;;;;;;;;18.60;45.20;;;;;;8236587;28;19918;-49
2021/10/18 20:59:16;;;;;;;;;;;18.60;45.20;;;;;;8235852;28;20389;-50
2021/10/18 21:03:17;;;;;;;;;;;18.60;45.10;;;;;;8235107;28;19914;-50
2021/10/18 21:07:17;;;;;;;;;;;18.60;45.10;;;;;;8235425;28;20352;-50
2021/10/18 21:11:20;;;;;;;;;;;18.60;45.10;;;;;;8235769;28;19933;-51
2021/10/18 21:15:20;;;;;;;;;;;18.60;45.10;;;;;;8235542;28;19949;-51
2021/10/18 21:19:21;;;;;;;;;;;18.60;45.10;;;;;;8235411;28;20379;-52
2021/10/18 21:23:21;;;;;;;;;;;18.50;45.10;;;;;;8235056;28;19918;-50
2021/10/18 21:27:22;;;;;;;;;;;18.50;45.00;;;;;;8234365;28;19926;-49
2021/10/18 21:31:22;;;;;;;;;;;18.50;45.00;;;;;;8235895;28;20314;-53
2021/10/18 21:35:23;;;;;;;;;;;18.50;45.10;;;;;;8234771;28;19921;-53
2021/10/18 21:39:23;;;;;;;;;;;18.50;45.10;;;;;;8233805;28;19914;-50
2021/10/18 21:43:24;;;;;;;;;;;18.50;45.10;;;;;;8234621;28;19988;-49
2021/10/18 21:47:24;;;;;;;;;;;18.50;45.10;;;;;;8234879;28;19918;-49
2021/10/18 21:51:25;;;;;;;;;;;18.50;45.10;;;;;;8233801;28;19914;-49
2021/10/18 21:55:25;;;;;;;;;;;18.50;45.00;;;;;;8234584;28;19922;-49
2021/10/18 21:59:26;;;;;;;;;;;18.50;45.00;;;;;;8233913;28;19910;-49
2021/10/18 22:03:26;;;;;;;;;;;18.50;45.10;;;;;;8232600;28;19954;-49
2021/10/18 22:07:26;;;;;;;;;;;18.40;45.00;;;;;;8233827;28;19922;-49
2021/10/18 22:11:27;;;;;;;;;;;18.50;45.00;;;;;;8233831;28;19925;-50
2021/10/18 22:15:28;;;;;;;;;;;18.50;45.10;;;;;;8233331;28;19929;-50
2021/10/18 22:19:29;;;;;;;;;;;18.40;45.00;;;;;;8233641;28;19943;-50
2021/10/18 22:23:31;;;;;;;;;;;18.40;45.00;;;;;;8234237;28;20331;-50
2021/10/18 22:27:32;;;;;;;;;;;18.50;45.00;;;;;;8232884;28;19968;-50
2021/10/18 22:31:32;;;;;;;;;;;18.40;45.00;;;;;;8233214;28;19914;-50
2021/10/18 22:35:33;;;;;;;;;;;18.40;45.00;;;;;;8233285;28;19922;-49
2021/10/18 22:39:33;;;;;;;;;;;18.40;45.00;;;;;;8233479;28;19917;-51
2021/10/18 22:43:34;;;;;;;;;;;18.40;45.00;;;;;;8233176;28;19914;-50
2021/10/18 22:47:34;;;;;;;;;;;18.40;45.00;;;;;;8232817;28;19922;-49
2021/10/18 22:51:35;;;;;;;;;;;18.40;45.00;;;;;;8234154;28;19917;-49
2021/10/18 22:55:35;;;;;;;;;;;18.40;44.90;;;;;;8240132;28;20292;-50
2021/10/18 22:59:36;;;;;;;;;;;18.40;45.00;;;;;;8240173;28;19914;-50
2021/10/18 23:03:36;;;;;;;;;;;18.40;45.00;;;;;;8239112;28;19914;-52
2021/10/18 23:07:36;;;;;;;;;;;18.40;44.90;;;;;;8239212;28;19922;-50
2021/10/18 23:11:37;;;;;;;;;;;18.40;45.00;;;;;;8239222;28;19956;-49
2021/10/18 23:15:37;;;;;;;;;;;18.40;45.00;;;;;;8239177;28;19969;-48
2021/10/18 23:19:38;;;;;;;;;;;18.30;44.90;;;;;;8238755;28;20279;-50
2021/10/18 23:23:38;;;;;;;;;;;18.40;44.90;;;;;;8238622;28;20334;-50
2021/10/18 23:27:39;;;;;;;;;;;18.30;44.90;;;;;;8237978;28;19949;-49
2021/10/18 23:31:40;;;;;;;;;;;18.30;44.90;;;;;;8239373;28;19921;-49
2021/10/18 23:35:40;;;;;;;;;;;18.30;44.90;;;;;;8238841;28;20004;-50
2021/10/18 23:39:41;;;;;;;;;;;18.30;44.90;;;;;;8237768;28;19989;-50
2021/10/18 23:43:41;;;;;;;;;;;18.30;44.90;;;;;;8238046;28;19925;-49
2021/10/18 23:47:43;;;;;;;;;;;18.30;44.90;;;;;;8237919;28;19938;-50
2021/10/18 23:51:43;;;;;;;;;;;18.30;44.90;;;;;;8238243;28;19914;-50
2021/10/18 23:55:44;;;;;;;;;;;18.30;44.90;;;;;;8237862;28;19968;-50
2021/10/18 23:59:44;;;;;;;;;;;18.30;44.90;;;;;;8237307;28;19914;-48
